createdAt,value
2022-10-25T00:00:41.109Z,9.21
2022-10-25T00:01:47.618Z,9.19
2022-10-25T00:02:49.960Z,9.24
2022-10-25T00:03:52.317Z,9.23
2022-10-25T00:04:54.216Z,9.21
2022-10-25T00:05:56.094Z,9.25
2022-10-25T00:06:58.112Z,9.19
2022-10-25T00:08:00.260Z,9.21
2022-10-25T00:09:02.353Z,9.24
2022-10-25T00:10:06.194Z,9.25
2022-10-25T00:11:12.101Z,9.24
2022-10-25T00:12:14.234Z,9.07
2022-10-25T00:13:16.109Z,9.19
2022-10-25T00:14:18.001Z,9.24
2022-10-25T00:15:20.192Z,9.20
2022-10-25T00:16:25.979Z,9.20
2022-10-25T00:17:27.925Z,9.23
2022-10-25T00:18:30.165Z,9.18
2022-10-25T00:19:32.059Z,9.17
2022-10-25T00:20:36.389Z,9.13
2022-10-25T00:21:38.657Z,9.12
2022-10-25T00:22:40.785Z,9.07
2022-10-25T00:23:42.723Z,9.14
2022-10-25T00:24:44.697Z,9.13
2022-10-25T00:25:46.682Z,9.09
2022-10-25T00:26:48.870Z,9.07
2022-10-25T00:27:50.768Z,9.05
2022-10-25T00:28:54.161Z,9.04
2022-10-25T00:29:56.354Z,9.03
2022-10-25T00:31:00.533Z,9.02
2022-10-25T00:32:02.919Z,9.00
2022-10-25T00:33:04.875Z,9.00
2022-10-25T00:34:07.149Z,8.98
2022-10-25T00:35:09.741Z,8.99
2022-10-25T00:36:19.234Z,8.99
2022-10-25T00:37:21.200Z,9.01
2022-10-25T00:38:23.341Z,9.02
2022-10-25T00:39:25.477Z,9.02
2022-10-25T00:40:27.454Z,9.02
2022-10-25T00:41:32.632Z,8.98
2022-10-25T00:42:34.711Z,9.00
2022-10-25T00:43:46.050Z,8.99
2022-10-25T00:44:54.469Z,8.95
2022-10-25T00:45:56.826Z,8.92
2022-10-25T00:46:59.491Z,8.96
2022-10-25T00:48:05.369Z,8.96
2022-10-25T00:49:14.344Z,8.96
2022-10-25T00:50:26.540Z,8.67
2022-10-25T00:51:35.081Z,8.96
2022-10-25T00:52:38.474Z,8.93
2022-10-25T00:53:41.961Z,8.93
2022-10-25T00:54:47.644Z,8.96
2022-10-25T00:55:53.403Z,8.95
2022-10-25T00:56:58.849Z,8.97
2022-10-25T00:58:07.582Z,8.97
2022-10-25T00:59:13.273Z,8.98
2022-10-25T01:00:16.191Z,9.01
2022-10-25T01:01:18.672Z,9.01
2022-10-25T01:02:22.301Z,9.04
2022-10-25T01:03:25.336Z,9.04
2022-10-25T01:04:29.442Z,9.05
2022-10-25T01:05:33.256Z,9.05
2022-10-25T01:06:40.853Z,9.01
2022-10-25T01:07:43.496Z,9.04
2022-10-25T01:08:47.754Z,8.98
2022-10-25T01:09:50.794Z,8.96
2022-10-25T01:10:52.901Z,9.00
2022-10-25T01:11:55.035Z,8.95
2022-10-25T01:12:58.578Z,8.98
2022-10-25T01:14:01.567Z,8.95
2022-10-25T01:15:04.881Z,8.89
2022-10-25T01:16:16.990Z,8.90
2022-10-25T01:17:39.645Z,8.91
2022-10-25T01:20:14.857Z,8.97
2022-10-25T01:21:38.543Z,8.77
2022-10-25T01:22:56.457Z,8.88
2022-10-25T01:24:36.001Z,8.91
2022-10-25T01:25:47.988Z,8.86
2022-10-25T01:27:12.091Z,8.85
2022-10-25T01:28:51.381Z,8.82
2022-10-25T01:30:12.068Z,8.83
2022-10-25T01:31:23.709Z,8.86
2022-10-25T01:32:52.597Z,8.84
2022-10-25T01:34:04.333Z,8.82
2022-10-25T01:35:39.344Z,8.84
2022-10-25T01:36:48.465Z,8.84
2022-10-25T01:37:54.196Z,8.83
2022-10-25T01:40:16.139Z,8.93
2022-10-25T01:41:24.606Z,8.86
2022-10-25T01:42:38.919Z,8.84
2022-10-25T01:43:48.002Z,8.83
2022-10-25T01:45:05.702Z,8.85
2022-10-25T01:46:15.508Z,8.83
2022-10-25T01:47:21.169Z,8.83
2022-10-25T01:50:03.082Z,8.96
2022-10-25T01:51:10.806Z,8.82
2022-10-25T01:52:14.602Z,8.81
2022-10-25T01:53:16.504Z,8.78
2022-10-25T01:54:21.966Z,8.80
2022-10-25T01:55:27.646Z,8.82
2022-10-25T01:56:33.543Z,8.77
2022-10-25T01:57:51.364Z,8.81
2022-10-25T01:59:15.644Z,8.79
2022-10-25T02:00:21.223Z,8.77
2022-10-25T02:01:27.094Z,8.79
2022-10-25T02:02:51.448Z,8.77
2022-10-25T02:04:03.552Z,8.81
2022-10-25T02:05:29.891Z,8.80
2022-10-25T02:07:08.077Z,8.84
2022-10-25T02:08:23.183Z,8.81
2022-10-25T02:09:34.906Z,8.81
2022-10-25T02:10:43.493Z,8.81
2022-10-25T02:11:47.733Z,8.82
2022-10-25T02:13:05.650Z,8.82
2022-10-25T02:14:17.189Z,8.80
2022-10-25T02:15:22.965Z,8.73
2022-10-25T02:16:41.121Z,8.69
2022-10-25T02:17:49.741Z,8.66
2022-10-25T02:18:58.551Z,8.58
2022-10-25T02:20:04.425Z,8.58
2022-10-25T02:21:08.951Z,8.55
2022-10-25T02:22:12.915Z,8.57
2022-10-25T02:23:18.456Z,8.57
2022-10-25T02:24:24.035Z,8.49
2022-10-25T02:25:27.658Z,8.53
2022-10-25T02:26:30.608Z,8.52
2022-10-25T02:27:34.713Z,8.52
2022-10-25T02:28:39.359Z,8.54
2022-10-25T02:29:44.529Z,8.51
2022-10-25T02:30:49.391Z,8.46
2022-10-25T02:31:51.344Z,8.48
2022-10-25T02:32:53.857Z,8.44
2022-10-25T02:33:56.065Z,8.44
2022-10-25T02:34:57.951Z,8.42
2022-10-25T02:36:15.081Z,8.42
2022-10-25T02:37:17.857Z,8.35
2022-10-25T02:38:20.110Z,8.34
2022-10-25T02:39:27.688Z,8.35
2022-10-25T02:40:28.995Z,8.34
2022-10-25T02:41:30.905Z,8.33
2022-10-25T02:42:32.785Z,8.33
2022-10-25T02:43:35.016Z,8.32
2022-10-25T02:44:36.918Z,8.31
2022-10-25T02:45:38.968Z,8.27
2022-10-25T02:46:41.597Z,8.26
2022-10-25T02:47:43.612Z,8.23
2022-10-25T02:48:47.009Z,8.20
2022-10-25T02:49:49.079Z,8.20
2022-10-25T02:50:51.713Z,8.16
2022-10-25T02:51:53.878Z,8.12
2022-10-25T02:52:55.878Z,8.14
2022-10-25T02:53:58.436Z,8.15
2022-10-25T02:55:00.338Z,8.15
2022-10-25T02:56:05.176Z,8.17
2022-10-25T02:57:07.101Z,8.22
2022-10-25T02:58:09.337Z,8.21
2022-10-25T02:59:11.756Z,8.20
2022-10-25T03:00:15.367Z,8.17
2022-10-25T03:01:19.233Z,8.19
2022-10-25T03:02:21.257Z,8.17
2022-10-25T03:03:23.366Z,8.15
2022-10-25T03:04:25.340Z,8.14
2022-10-25T03:05:27.316Z,8.09
2022-10-25T03:06:29.536Z,7.96
2022-10-25T03:07:31.443Z,7.93
2022-10-25T03:08:33.815Z,7.92
2022-10-25T03:09:35.725Z,7.89
2022-10-25T03:10:37.803Z,7.87
2022-10-25T03:11:39.714Z,7.87
2022-10-25T03:12:41.607Z,7.89
2022-10-25T03:13:43.770Z,7.82
2022-10-25T03:14:45.853Z,7.75
2022-10-25T03:15:48.041Z,7.70
2022-10-25T03:16:50.230Z,7.70
2022-10-25T03:17:52.130Z,7.70
2022-10-25T03:18:56.761Z,7.63
2022-10-25T03:19:58.685Z,7.64
2022-10-25T03:21:03.284Z,7.62
2022-10-25T03:22:05.293Z,7.66
2022-10-25T03:23:07.761Z,7.64
2022-10-25T03:24:09.644Z,7.65
2022-10-25T03:25:11.938Z,7.71
2022-10-25T03:26:14.115Z,7.74
2022-10-25T03:27:16.136Z,7.73
2022-10-25T03:28:18.003Z,7.74
2022-10-25T03:29:20.162Z,7.74
2022-10-25T03:30:22.725Z,7.74
2022-10-25T03:31:24.738Z,7.69
2022-10-25T03:32:26.812Z,7.67
2022-10-25T03:34:30.880Z,7.67
2022-10-25T03:35:32.742Z,7.52
2022-10-25T03:36:35.058Z,7.64
2022-10-25T03:37:37.068Z,7.63
2022-10-25T03:38:39.456Z,7.61
2022-10-25T03:39:41.513Z,7.62
2022-10-25T03:40:44.913Z,7.63
2022-10-25T03:41:47.151Z,7.62
2022-10-25T03:42:49.043Z,7.62
2022-10-25T03:43:50.918Z,7.59
2022-10-25T03:44:52.809Z,7.57
2022-10-25T03:45:56.783Z,7.57
2022-10-25T03:46:58.905Z,7.59
2022-10-25T03:48:00.913Z,7.57
2022-10-25T03:49:02.928Z,7.57
2022-10-25T03:50:06.676Z,7.53
2022-10-25T03:51:08.642Z,7.49
2022-10-25T03:52:11.350Z,7.47
2022-10-25T03:53:13.241Z,7.45
2022-10-25T03:54:15.272Z,7.43
2022-10-25T03:55:17.481Z,7.49
2022-10-25T03:56:19.727Z,7.51
2022-10-25T03:57:21.726Z,7.52
2022-10-25T03:58:23.809Z,7.51
2022-10-25T03:59:26.833Z,7.50
2022-10-25T04:00:29.223Z,7.47
2022-10-25T04:01:31.275Z,7.45
2022-10-25T04:02:33.387Z,7.49
2022-10-25T04:03:35.519Z,7.51
2022-10-25T04:04:37.915Z,7.62
2022-10-25T04:05:40.240Z,7.40
2022-10-25T04:06:42.638Z,7.37
2022-10-25T04:07:45.095Z,7.37
2022-10-25T04:08:47.217Z,7.36
2022-10-25T04:09:49.104Z,7.45
2022-10-25T04:10:51.081Z,7.47
2022-10-25T04:11:53.074Z,7.51
2022-10-25T04:12:55.275Z,7.47
2022-10-25T04:13:57.644Z,7.50
2022-10-25T04:14:59.611Z,7.55
2022-10-25T04:16:07.424Z,7.46
2022-10-25T04:17:09.540Z,7.46
2022-10-25T04:18:11.416Z,7.53
2022-10-25T04:19:13.398Z,7.58
2022-10-25T04:20:16.089Z,7.61
2022-10-25T04:21:18.993Z,7.66
2022-10-25T04:22:20.904Z,7.70
2022-10-25T04:23:23.774Z,7.65
2022-10-25T04:24:25.669Z,7.64
2022-10-25T04:25:28.358Z,7.62
2022-10-25T04:26:30.470Z,7.64
2022-10-25T04:27:32.835Z,7.63
2022-10-25T04:28:34.915Z,7.62
2022-10-25T04:29:37.105Z,7.64
2022-10-25T04:30:39.245Z,7.64
2022-10-25T04:31:41.150Z,7.62
2022-10-25T04:32:43.354Z,7.63
2022-10-25T04:33:49.545Z,7.58
2022-10-25T04:34:51.523Z,7.61
2022-10-25T04:35:57.237Z,7.69
2022-10-25T04:36:59.394Z,7.64
2022-10-25T04:38:01.305Z,7.64
2022-10-25T04:39:03.354Z,7.69
2022-10-25T04:40:06.583Z,7.66
2022-10-25T04:41:09.991Z,7.63
2022-10-25T04:42:11.928Z,7.68
2022-10-25T04:43:13.804Z,7.64
2022-10-25T04:44:15.711Z,7.63
2022-10-25T04:45:18.029Z,7.58
2022-10-25T04:46:21.586Z,7.63
2022-10-25T04:47:23.481Z,7.65
2022-10-25T04:48:25.383Z,7.68
2022-10-25T04:49:27.269Z,7.71
2022-10-25T04:50:29.389Z,7.75
2022-10-25T04:51:31.476Z,7.83
2022-10-25T04:52:33.533Z,7.81
2022-10-25T04:53:35.714Z,7.82
2022-10-25T04:54:37.599Z,7.89
2022-10-25T04:55:39.584Z,7.90
2022-10-25T04:56:41.864Z,7.83
2022-10-25T04:57:43.737Z,7.84
2022-10-25T04:58:46.019Z,7.87
2022-10-25T04:59:48.216Z,7.91
2022-10-25T05:00:50.592Z,7.92
2022-10-25T05:01:52.506Z,7.92
2022-10-25T05:02:55.367Z,7.94
2022-10-25T05:03:57.539Z,7.99
2022-10-25T05:04:59.405Z,8.01
2022-10-25T05:06:14.157Z,8.03
2022-10-25T05:07:18.002Z,8.02
2022-10-25T05:08:20.086Z,8.03
2022-10-25T05:09:22.293Z,8.08
2022-10-25T05:10:24.522Z,8.06
2022-10-25T05:11:26.573Z,8.09
2022-10-25T05:12:29.877Z,8.13
2022-10-25T05:13:34.525Z,8.16
2022-10-25T05:14:36.453Z,8.20
2022-10-25T05:15:38.376Z,8.17
2022-10-25T05:16:40.464Z,8.12
2022-10-25T05:17:42.333Z,8.26
2022-10-25T05:18:44.211Z,8.26
2022-10-25T05:19:46.296Z,8.28
2022-10-25T05:20:53.302Z,8.33
2022-10-25T05:21:55.285Z,8.36
2022-10-25T05:22:57.488Z,8.41
2022-10-25T05:24:01.902Z,8.47
2022-10-25T05:25:05.327Z,8.49
2022-10-25T05:26:14.813Z,8.56
2022-10-25T05:27:17.414Z,8.59
2022-10-25T05:28:19.498Z,8.62
2022-10-25T05:29:21.375Z,8.65
2022-10-25T05:30:23.371Z,8.68
2022-10-25T05:31:27.911Z,8.73
2022-10-25T05:32:30.471Z,8.79
2022-10-25T05:33:33.352Z,8.79
2022-10-25T05:34:35.616Z,8.79
2022-10-25T05:35:37.505Z,8.80
2022-10-25T05:36:40.288Z,8.86
2022-10-25T05:37:42.259Z,8.83
2022-10-25T05:38:45.070Z,8.83
2022-10-25T05:39:47.271Z,8.86
2022-10-25T05:40:54.412Z,8.88
2022-10-25T05:41:56.543Z,8.92
2022-10-25T05:42:58.957Z,8.92
2022-10-25T05:44:00.938Z,8.94
2022-10-25T05:45:03.739Z,8.94
2022-10-25T05:46:09.635Z,8.99
2022-10-25T05:47:11.770Z,8.97
2022-10-25T05:48:13.711Z,8.92
2022-10-25T05:49:15.587Z,8.92
2022-10-25T05:50:18.584Z,9.01
2022-10-25T05:51:42.162Z,9.02
2022-10-25T05:52:30.558Z,9.06
2022-10-25T05:53:32.549Z,9.08
2022-10-25T05:54:36.350Z,9.11
2022-10-25T05:55:38.237Z,9.15
2022-10-25T05:56:41.785Z,9.20
2022-10-25T05:57:47.566Z,9.20
2022-10-25T05:58:50.687Z,9.24
2022-10-25T05:59:52.747Z,9.26
2022-10-25T06:00:58.774Z,9.27
2022-10-25T06:02:01.385Z,9.28
2022-10-25T06:03:03.655Z,9.35
2022-10-25T06:04:05.936Z,9.33
2022-10-25T06:05:08.641Z,9.40
2022-10-25T06:06:11.387Z,9.45
2022-10-25T06:07:13.857Z,9.50
2022-10-25T06:08:15.953Z,9.50
2022-10-25T06:09:17.836Z,9.55
2022-10-25T06:10:20.645Z,9.57
2022-10-25T06:11:24.989Z,9.64
2022-10-25T06:12:27.836Z,9.66
2022-10-25T06:13:30.220Z,9.70
2022-10-25T06:14:32.135Z,9.68
2022-10-25T06:15:36.238Z,9.70
2022-10-25T06:16:39.139Z,9.75
2022-10-25T06:17:41.034Z,9.81
2022-10-25T06:18:43.615Z,9.83
2022-10-25T06:19:45.601Z,9.91
2022-10-25T06:20:47.792Z,9.94
2022-10-25T06:21:49.802Z,9.95
2022-10-25T06:22:52.077Z,10.01
2022-10-25T06:23:55.617Z,10.01
2022-10-25T06:24:57.574Z,10.06
2022-10-25T06:26:01.388Z,10.07
2022-10-25T06:27:03.989Z,10.09
2022-10-25T06:28:06.087Z,10.10
2022-10-25T06:29:09.182Z,10.13
2022-10-25T06:30:12.062Z,10.14
2022-10-25T06:31:16.834Z,10.16
2022-10-25T06:32:18.768Z,10.15
2022-10-25T06:33:24.458Z,10.13
2022-10-25T06:34:24.834Z,10.04
2022-10-25T06:35:27.017Z,10.12
2022-10-25T06:36:30.236Z,10.11
2022-10-25T06:37:32.140Z,10.09
2022-10-25T06:38:34.073Z,9.97
2022-10-25T06:39:35.953Z,10.15
2022-10-25T06:40:38.281Z,10.16
2022-10-25T06:41:40.243Z,10.18
2022-10-25T06:42:42.132Z,10.19
2022-10-25T06:43:44.018Z,10.21
2022-10-25T06:44:46.100Z,10.27
2022-10-25T06:45:48.575Z,10.24
2022-10-25T06:47:54.936Z,10.33
2022-10-25T06:48:57.429Z,10.38
2022-10-25T06:49:59.391Z,10.41
2022-10-25T06:51:06.104Z,10.44
2022-10-25T06:52:08.252Z,10.49
2022-10-25T06:53:12.831Z,10.50
2022-10-25T06:54:15.698Z,10.53
2022-10-25T06:55:17.600Z,10.61
2022-10-25T06:56:20.306Z,10.61
2022-10-25T06:57:22.584Z,10.57
2022-10-25T06:58:24.893Z,10.61
2022-10-25T06:59:26.940Z,10.65
2022-10-25T07:00:28.960Z,10.68
2022-10-25T07:01:30.907Z,10.72
2022-10-25T07:02:33.168Z,10.72
2022-10-25T07:03:35.142Z,10.78
2022-10-25T07:04:37.065Z,10.79
2022-10-25T07:05:38.952Z,10.84
2022-10-25T07:06:41.357Z,10.87
2022-10-25T07:07:43.620Z,10.86
2022-10-25T07:08:47.105Z,10.91
2022-10-25T07:09:49.251Z,10.96
2022-10-25T07:10:55.585Z,10.95
2022-10-25T07:11:57.548Z,10.97
2022-10-25T07:12:59.518Z,11.07
2022-10-25T07:14:01.894Z,11.14
2022-10-25T07:15:04.820Z,11.28
2022-10-25T07:16:09.789Z,11.41
2022-10-25T07:17:11.705Z,11.54
2022-10-25T07:18:13.927Z,11.71
2022-10-25T07:19:15.899Z,11.84
2022-10-25T07:20:18.411Z,12.03
2022-10-25T07:21:22.282Z,12.17
2022-10-25T07:22:24.946Z,12.16
2022-10-25T07:23:33.021Z,12.37
2022-10-25T07:24:35.827Z,12.48
2022-10-25T07:25:37.898Z,12.61
2022-10-25T07:26:40.083Z,12.75
2022-10-25T07:27:41.981Z,12.83
2022-10-25T07:28:46.297Z,12.99
2022-10-25T07:29:52.141Z,13.11
2022-10-25T07:30:54.732Z,13.19
2022-10-25T07:31:56.879Z,13.44
2022-10-25T07:32:58.865Z,13.61
2022-10-25T07:34:03.157Z,13.87
2022-10-25T07:35:05.991Z,14.04
2022-10-25T07:36:12.354Z,14.15
2022-10-25T07:37:13.118Z,14.20
2022-10-25T07:38:15.144Z,14.09
2022-10-25T07:39:21.883Z,13.69
2022-10-25T07:40:24.113Z,13.78
2022-10-25T07:41:28.216Z,13.81
2022-10-25T07:42:30.369Z,13.81
2022-10-25T07:43:32.674Z,13.86
2022-10-25T07:44:34.885Z,13.84
2022-10-25T07:45:38.275Z,13.81
2022-10-25T07:46:43.141Z,13.51
2022-10-25T07:47:45.558Z,13.74
2022-10-25T07:48:51.116Z,13.73
2022-10-25T07:49:53.714Z,13.55
2022-10-25T07:50:55.893Z,13.79
2022-10-25T07:51:57.768Z,13.81
2022-10-25T07:52:59.682Z,13.83
2022-10-25T07:54:01.950Z,13.83
2022-10-25T07:55:07.746Z,13.75
2022-10-25T07:56:17.623Z,13.63
2022-10-25T07:57:19.219Z,13.64
2022-10-25T07:58:21.299Z,13.66
2022-10-25T07:59:23.369Z,13.68
2022-10-25T08:00:25.582Z,13.74
2022-10-25T08:01:28.575Z,13.71
2022-10-25T08:02:31.067Z,13.73
2022-10-25T08:03:36.128Z,13.74
2022-10-25T08:04:38.552Z,13.76
2022-10-25T08:05:43.764Z,13.73
2022-10-25T08:06:45.983Z,13.80
2022-10-25T08:07:49.849Z,13.68
2022-10-25T08:08:52.252Z,13.69
2022-10-25T08:09:54.320Z,13.64
2022-10-25T08:10:56.934Z,13.67
2022-10-25T08:11:59.068Z,13.64
2022-10-25T08:13:00.956Z,13.71
2022-10-25T08:14:02.866Z,13.72
2022-10-25T08:15:06.481Z,13.68
2022-10-25T08:16:08.782Z,13.69
2022-10-25T08:17:11.247Z,13.69
2022-10-25T08:18:13.125Z,13.71
2022-10-25T08:19:15.673Z,13.73
2022-10-25T08:20:19.114Z,13.71
2022-10-25T08:21:22.369Z,13.81
2022-10-25T08:22:25.118Z,13.78
2022-10-25T08:23:27.504Z,13.83
2022-10-25T08:24:29.898Z,13.84
2022-10-25T08:25:32.373Z,13.87
2022-10-25T08:26:36.902Z,13.84
2022-10-25T08:27:41.377Z,13.88
2022-10-25T08:28:45.171Z,13.93
2022-10-25T08:29:47.592Z,13.97
2022-10-25T08:30:49.682Z,14.01
2022-10-25T08:31:51.760Z,14.02
2022-10-25T08:32:53.752Z,13.90
2022-10-25T08:33:55.629Z,13.73
2022-10-25T08:34:57.865Z,13.88
2022-10-25T08:36:01.922Z,13.96
2022-10-25T08:37:03.938Z,14.03
2022-10-25T08:38:06.133Z,14.07
2022-10-25T08:39:08.494Z,14.16
2022-10-25T08:40:21.005Z,14.16
2022-10-25T08:41:42.343Z,14.13
2022-10-25T08:43:09.322Z,14.12
2022-10-25T08:44:38.238Z,14.14
2022-10-25T08:47:14.915Z,14.28
2022-10-25T08:48:20.621Z,14.18
2022-10-25T08:49:29.336Z,14.17
2022-10-25T08:50:38.401Z,14.14
2022-10-25T08:51:44.465Z,14.10
2022-10-25T08:52:53.131Z,14.17
2022-10-25T08:53:58.883Z,14.18
2022-10-25T08:55:05.606Z,14.15
2022-10-25T08:56:16.609Z,14.16
2022-10-25T08:57:24.146Z,14.09
2022-10-25T08:58:35.450Z,14.11
2022-10-25T08:59:40.968Z,14.15
2022-10-25T09:00:46.492Z,14.14
2022-10-25T09:01:58.231Z,14.13
2022-10-25T09:03:01.899Z,14.09
2022-10-25T09:04:04.281Z,14.11
2022-10-25T09:05:27.219Z,14.11
2022-10-25T09:06:35.936Z,14.10
2022-10-25T09:09:15.253Z,14.17
2022-10-25T09:10:55.504Z,14.08
2022-10-25T09:12:03.865Z,14.13
2022-10-25T09:13:30.159Z,14.17
2022-10-25T09:14:57.636Z,14.18
2022-10-25T09:16:06.241Z,14.13
2022-10-25T09:17:20.673Z,14.16
2022-10-25T09:18:26.475Z,14.15
2022-10-25T09:19:37.615Z,14.15
2022-10-25T09:20:41.588Z,14.17
2022-10-25T09:22:01.811Z,14.20
2022-10-25T09:23:26.888Z,14.20
2022-10-25T09:24:51.817Z,14.17
2022-10-25T09:26:17.415Z,14.15
2022-10-25T09:27:25.968Z,14.09
2022-10-25T09:28:40.690Z,14.06
2022-10-25T09:30:05.166Z,14.09
2022-10-25T09:31:08.882Z,14.11
2022-10-25T09:32:20.325Z,14.11
2022-10-25T09:33:25.978Z,14.12
2022-10-25T09:34:31.692Z,14.13
2022-10-25T09:35:49.223Z,14.15
2022-10-25T09:36:55.203Z,14.14
2022-10-25T09:38:01.100Z,14.17
2022-10-25T09:39:07.188Z,14.16
2022-10-25T09:40:16.697Z,14.15
2022-10-25T09:41:44.283Z,14.13
2022-10-25T09:42:49.977Z,14.15
2022-10-25T09:44:08.053Z,14.13
2022-10-25T09:45:19.896Z,14.09
2022-10-25T09:46:31.777Z,14.08
2022-10-25T09:47:47.228Z,14.05
2022-10-25T09:49:01.822Z,14.00
2022-10-25T09:50:08.068Z,14.03
2022-10-25T09:52:48.869Z,14.14
2022-10-25T09:53:52.588Z,13.99
2022-10-25T09:55:04.028Z,14.06
2022-10-25T09:56:06.845Z,14.02
2022-10-25T09:57:09.031Z,13.98
2022-10-25T09:58:17.782Z,13.99
2022-10-25T09:59:20.110Z,13.99
2022-10-25T10:00:22.231Z,13.99
2022-10-25T10:01:27.171Z,13.97
2022-10-25T10:02:29.664Z,13.99
2022-10-25T10:03:35.483Z,13.95
2022-10-25T10:04:38.806Z,13.92
2022-10-25T10:05:50.571Z,13.96
2022-10-25T10:06:56.618Z,13.93
2022-10-25T10:07:58.560Z,13.91
2022-10-25T10:09:04.174Z,13.87
2022-10-25T10:10:12.910Z,13.86
2022-10-25T10:11:18.033Z,13.86
2022-10-25T10:12:23.821Z,13.84
2022-10-25T10:13:35.320Z,13.87
2022-10-25T10:14:46.487Z,13.86
2022-10-25T10:15:57.526Z,13.86
2022-10-25T10:17:00.842Z,13.81
2022-10-25T10:18:29.571Z,13.80
2022-10-25T10:19:31.713Z,13.80
2022-10-25T10:20:34.106Z,13.64
2022-10-25T10:21:37.235Z,13.78
2022-10-25T10:22:45.620Z,13.73
2022-10-25T10:24:00.213Z,13.68
2022-10-25T10:25:03.349Z,13.71
2022-10-25T10:26:18.433Z,13.69
2022-10-25T10:27:27.409Z,13.68
2022-10-25T10:28:30.645Z,13.66
2022-10-25T10:29:35.103Z,13.65
2022-10-25T10:30:38.141Z,13.66
2022-10-25T10:31:43.044Z,13.66
2022-10-25T10:32:45.180Z,13.62
2022-10-25T10:33:51.319Z,13.65
2022-10-25T10:34:56.693Z,13.61
2022-10-25T10:36:20.775Z,13.56
2022-10-25T10:37:24.615Z,13.56
2022-10-25T10:38:28.367Z,13.54
2022-10-25T10:39:31.549Z,13.53
2022-10-25T10:40:33.746Z,13.52
2022-10-25T10:41:39.102Z,13.53
2022-10-25T10:42:41.407Z,13.56
2022-10-25T10:43:43.573Z,13.52
2022-10-25T10:46:16.645Z,13.61
2022-10-25T10:47:20.798Z,13.49
2022-10-25T10:48:24.209Z,13.51
2022-10-25T10:50:47.128Z,13.61
2022-10-25T10:51:49.389Z,13.47
2022-10-25T10:52:59.771Z,13.44
2022-10-25T10:54:28.338Z,13.44
2022-10-25T10:55:34.043Z,13.42
2022-10-25T10:56:36.474Z,13.42
2022-10-25T10:57:38.669Z,13.42
2022-10-25T10:58:40.804Z,13.40
2022-10-25T10:59:46.459Z,13.42
2022-10-25T11:01:09.741Z,13.39
2022-10-25T11:02:28.325Z,13.41
2022-10-25T11:03:59.798Z,13.40
2022-10-25T11:04:49.435Z,13.36
2022-10-25T11:05:53.529Z,13.38
2022-10-25T11:06:59.472Z,13.37
2022-10-25T11:08:08.582Z,13.35
2022-10-25T11:09:17.466Z,13.39
2022-10-25T11:10:23.846Z,13.41
2022-10-25T11:11:26.045Z,13.37
2022-10-25T11:12:28.341Z,13.36
2022-10-25T11:13:30.261Z,13.39
2022-10-25T11:14:32.634Z,13.40
2022-10-25T11:15:38.495Z,13.37
2022-10-25T11:16:59.086Z,13.34
2022-10-25T11:18:04.985Z,13.37
2022-10-25T11:19:31.728Z,13.34
2022-10-25T11:20:37.652Z,13.33
2022-10-25T11:22:09.100Z,13.38
2022-10-25T11:23:30.138Z,13.39
2022-10-25T11:25:05.176Z,13.39
2022-10-25T11:26:14.722Z,13.36
2022-10-25T11:27:40.124Z,13.35
2022-10-25T11:28:58.281Z,13.33
2022-10-25T11:30:15.938Z,13.33
2022-10-25T11:31:24.797Z,13.32
2022-10-25T11:32:50.356Z,13.34
2022-10-25T11:34:07.749Z,13.36
2022-10-25T11:35:45.425Z,13.35
2022-10-25T11:36:51.615Z,13.34
2022-10-25T11:38:06.344Z,13.34
2022-10-25T11:39:24.350Z,13.30
2022-10-25T11:40:42.686Z,13.32
2022-10-25T11:42:03.568Z,13.31
2022-10-25T11:43:33.499Z,13.33
2022-10-25T11:44:44.344Z,13.30
2022-10-25T11:45:48.870Z,13.31
2022-10-25T11:46:55.069Z,13.29
2022-10-25T11:48:17.825Z,13.31
2022-10-25T11:49:23.697Z,13.31
2022-10-25T11:50:35.621Z,13.28
2022-10-25T11:51:44.631Z,13.30
2022-10-25T11:53:05.472Z,13.29
2022-10-25T11:54:23.843Z,13.30
2022-10-25T11:55:46.772Z,13.26
2022-10-25T11:56:52.595Z,13.31
2022-10-25T11:58:07.104Z,13.31
2022-10-25T11:59:41.995Z,13.32
2022-10-25T12:00:59.912Z,13.30
2022-10-25T12:02:33.365Z,13.31
2022-10-25T12:03:56.640Z,13.33
2022-10-25T12:05:34.769Z,13.31
2022-10-25T12:06:46.113Z,13.34
2022-10-25T12:07:51.862Z,13.36
2022-10-25T12:10:25.542Z,13.45
2022-10-25T12:11:39.558Z,13.37
2022-10-25T12:12:48.938Z,13.40
2022-10-25T12:13:58.143Z,13.38
2022-10-25T12:15:02.704Z,13.39
2022-10-25T12:16:08.516Z,13.43
2022-10-25T12:17:30.437Z,13.42
2022-10-25T12:18:42.054Z,13.25
2022-10-25T12:19:48.023Z,13.38
2022-10-25T12:20:52.863Z,13.39
2022-10-25T12:22:02.068Z,13.36
2022-10-25T12:23:08.296Z,13.35
2022-10-25T12:24:14.005Z,13.33
2022-10-25T12:25:37.967Z,13.34
2022-10-25T12:26:41.915Z,13.33
2022-10-25T12:27:47.079Z,13.33
2022-10-25T12:28:50.710Z,13.34
2022-10-25T12:29:56.524Z,13.29
2022-10-25T12:31:08.248Z,13.27
2022-10-25T12:32:22.731Z,13.27
2022-10-25T12:33:37.828Z,13.26
2022-10-25T12:34:49.688Z,13.25
2022-10-25T12:35:55.462Z,13.21
2022-10-25T12:37:25.844Z,13.20
2022-10-25T12:38:34.349Z,13.18
2022-10-25T12:39:44.373Z,13.18
2022-10-25T12:40:49.023Z,13.18
2022-10-25T12:41:57.692Z,13.17
2022-10-25T12:43:12.736Z,13.15
2022-10-25T12:44:44.066Z,13.14
2022-10-25T12:45:59.006Z,13.14
2022-10-25T12:47:13.447Z,13.11
2022-10-25T12:48:46.887Z,13.09
2022-10-25T12:50:28.258Z,13.10
2022-10-25T12:51:49.160Z,13.06
2022-10-25T12:53:04.099Z,13.07
2022-10-25T12:55:38.288Z,13.16
2022-10-25T12:58:17.932Z,13.16
2022-10-25T12:59:38.451Z,13.06
2022-10-25T13:00:56.327Z,13.07
2022-10-25T13:02:24.568Z,13.06
2022-10-25T13:03:48.731Z,13.00
2022-10-25T13:05:09.337Z,13.00
2022-10-25T13:06:21.821Z,12.98
2022-10-25T13:07:24.390Z,12.96
2022-10-25T13:08:27.505Z,12.96
2022-10-25T13:09:33.164Z,12.96
2022-10-25T13:10:45.397Z,12.95
2022-10-25T13:11:51.603Z,12.89
2022-10-25T13:13:15.707Z,12.90
2022-10-25T13:14:29.383Z,12.90
2022-10-25T13:15:53.072Z,12.87
2022-10-25T13:17:17.406Z,12.88
2022-10-25T13:18:35.458Z,12.85
2022-10-25T13:19:55.045Z,12.83
2022-10-25T13:20:44.494Z,12.83
2022-10-25T13:21:56.555Z,12.79
2022-10-25T13:22:58.711Z,12.81
2022-10-25T13:24:01.512Z,12.77
2022-10-25T13:25:07.299Z,12.73
2022-10-25T13:26:13.183Z,12.74
2022-10-25T13:27:21.862Z,12.72
2022-10-25T13:28:34.041Z,12.69
2022-10-25T17:12:17.393Z,11.48
2022-10-25T17:13:19.768Z,11.39
2022-10-25T17:14:21.927Z,11.48
2022-10-25T17:15:24.411Z,11.54
2022-10-25T17:16:26.648Z,11.57
2022-10-25T17:17:28.638Z,11.62
2022-10-25T17:18:32.345Z,11.64
2022-10-25T17:19:35.196Z,11.67
2022-10-25T17:20:37.228Z,11.64
2022-10-25T17:21:39.667Z,11.65
2022-10-25T17:22:41.921Z,11.65
2022-10-25T17:23:44.268Z,11.66
2022-10-25T17:24:46.200Z,11.68
2022-10-25T17:25:57.567Z,11.70
2022-10-25T17:26:59.676Z,11.71
2022-10-25T17:28:02.110Z,11.73
2022-10-25T17:29:04.568Z,11.74
2022-10-25T17:30:09.009Z,11.73
2022-10-25T17:31:13.313Z,11.71
2022-10-25T17:32:15.412Z,11.73
2022-10-25T17:33:17.525Z,11.75
2022-10-25T17:34:20.664Z,11.77
2022-10-25T17:35:25.621Z,11.78
2022-10-25T17:36:28.230Z,11.75
2022-10-25T17:37:33.007Z,11.75
2022-10-25T17:38:35.106Z,11.75
2022-10-25T17:39:37.220Z,11.75
2022-10-25T17:40:41.397Z,11.79
2022-10-25T17:41:43.446Z,11.77
2022-10-25T17:42:45.667Z,11.78
2022-10-25T17:43:49.233Z,11.77
2022-10-25T17:44:51.943Z,11.71
2022-10-25T17:46:00.060Z,11.75
2022-10-25T17:47:03.168Z,11.75
2022-10-25T17:48:07.003Z,11.73
2022-10-25T17:49:09.015Z,11.77
2022-10-25T17:50:12.074Z,11.79
2022-10-25T17:51:15.175Z,11.84
2022-10-25T17:52:17.087Z,11.80
2022-10-25T17:53:19.280Z,11.78
2022-10-25T17:54:21.234Z,11.80
2022-10-25T17:55:26.862Z,11.80
2022-10-25T17:57:33.639Z,11.84
2022-10-25T17:58:35.666Z,11.85
2022-10-25T17:59:37.606Z,11.83
2022-10-25T18:00:39.806Z,11.86
2022-10-25T18:01:41.833Z,11.83
2022-10-25T18:02:43.962Z,11.86
2022-10-25T18:03:47.102Z,11.84
2022-10-25T18:05:02.318Z,11.85
2022-10-25T18:05:52.883Z,11.85
2022-10-25T18:06:55.105Z,11.83
2022-10-25T18:07:57.263Z,11.85
2022-10-25T18:08:59.430Z,11.81
2022-10-25T18:10:01.325Z,11.83
2022-10-25T18:11:10.502Z,11.82
2022-10-25T18:12:12.829Z,11.82
2022-10-25T18:13:14.928Z,11.82
2022-10-25T18:14:16.908Z,11.84
2022-10-25T18:15:19.441Z,11.79
2022-10-25T18:16:22.763Z,11.73
2022-10-25T18:17:24.657Z,11.73
2022-10-25T18:18:27.047Z,11.74
2022-10-25T18:19:29.035Z,11.72
2022-10-25T18:20:32.626Z,11.67
2022-10-25T18:21:34.538Z,11.71
2022-10-25T18:22:36.442Z,11.70
2022-10-25T18:23:38.839Z,11.70
2022-10-25T18:24:40.958Z,11.69
2022-10-25T18:25:52.924Z,11.69
2022-10-25T18:26:55.927Z,11.71
2022-10-25T18:27:58.134Z,11.72
2022-10-25T18:29:00.327Z,11.71